Time;durP1;ratioP1;P1;durP2;ratioP2;P2;SDS_P1;SDS_P2;PMS_P1;PMS_P2;Temp;Humidity;BMP_temperature;BMP_pressure;BME280_temperature;BME280_humidity;BME280_pressure;Samples;Min_cycle;Max_cycle;Signal;HPM_P1;HPM_P2
2023/07/16 00:00:46;;;;;;;5.35;3.63;;;;;;;18.45;100.00;100754.97;4965215;28;20047;-71
2023/07/16 00:03:14;;;;;;;4.97;2.90;;;;;;;18.41;100.00;100761.47;4964864;28;20066;-72
2023/07/16 00:05:41;;;;;;;5.18;2.88;;;;;;;18.37;100.00;100767.09;4959704;28;20282;-71
2023/07/16 00:08:08;;;;;;;5.10;2.05;;;;;;;18.30;99.53;100769.31;4965578;28;20381;-72
2023/07/16 00:10:37;;;;;;;5.90;2.50;;;;;;;18.22;97.99;100767.13;4965612;28;20047;-71
2023/07/16 00:13:04;;;;;;;5.93;2.20;;;;;;;18.11;96.72;100766.94;4966594;28;20049;-71
2023/07/16 00:15:31;;;;;;;5.38;2.38;;;;;;;18.01;95.78;100774.66;4968833;28;20052;-71
2023/07/16 00:17:59;;;;;;;7.65;2.30;;;;;;;17.93;96.22;100774.25;4963489;28;20534;-70
2023/07/16 00:20:26;;;;;;;5.63;2.72;;;;;;;17.88;97.47;100765.69;4966064;28;20101;-70
2023/07/16 00:22:54;;;;;;;6.25;2.53;;;;;;;17.84;97.28;100773.88;4965255;28;20302;-71
2023/07/16 00:25:21;;;;;;;6.80;2.65;;;;;;;17.80;96.81;100768.84;4965089;28;20038;-70
2023/07/16 00:27:48;;;;;;;7.63;2.60;;;;;;;17.78;97.03;100770.72;4965234;28;20084;-70
2023/07/16 00:30:15;;;;;;;6.32;2.60;;;;;;;17.73;96.62;100770.19;4997450;28;20047;-70
2023/07/16 00:32:42;;;;;;;7.70;2.65;;;;;;;17.66;97.10;100770.53;4964481;28;20042;-70
2023/07/16 00:35:10;;;;;;;7.13;3.20;;;;;;;17.61;97.41;100772.63;4965953;28;20047;-70
2023/07/16 00:37:37;;;;;;;5.80;3.05;;;;;;;17.57;98.16;100776.44;4963383;28;20415;-70
2023/07/16 00:40:07;;;;;;;6.65;2.80;;;;;;;17.56;98.68;100782.72;4964169;28;20039;-73
2023/07/16 00:42:35;;;;;;;4.30;2.70;;;;;;;17.54;99.01;100788.13;4961921;28;20050;-71
2023/07/16 00:45:06;;;;;;;5.68;3.00;;;;;;;17.50;99.10;100785.75;4963860;28;20031;-71
2023/07/16 00:47:33;;;;;;;6.35;3.10;;;;;;;17.46;99.38;100786.88;4966130;28;20289;-72
2023/07/16 00:50:01;;;;;;;4.95;3.20;;;;;;;17.42;99.68;100790.69;4966725;28;20046;-71
2023/07/16 00:52:28;;;;;;;4.18;2.80;;;;;;;17.40;100.00;100788.09;4994529;28;20439;-71
2023/07/16 00:54:55;;;;;;;9.02;2.85;;;;;;;17.38;100.00;100787.38;4963192;28;20043;-66
2023/07/16 00:57:23;;;;;;;4.22;2.60;;;;;;;17.35;100.00;100782.22;4992741;28;20506;-72
2023/07/16 00:59:50;;;;;;;5.88;2.90;;;;;;;17.31;100.00;100778.88;4980087;28;20129;-72
2023/07/16 01:02:17;;;;;;;5.70;2.75;;;;;;;17.30;100.00;100778.94;4965806;28;20053;-70
2023/07/16 01:04:44;;;;;;;6.78;2.72;;;;;;;17.28;100.00;100779.03;4965348;28;20070;-70
2023/07/16 01:07:15;;;;;;;6.43;2.70;;;;;;;17.27;100.00;100779.16;4963427;28;20086;-70
2023/07/16 01:09:45;;;;;;;7.40;2.53;;;;;;;17.26;100.00;100780.94;4994622;28;20042;-70
2023/07/16 01:12:13;;;;;;;5.63;2.58;;;;;;;17.29;100.00;100782.59;4966929;28;20408;-71
2023/07/16 01:14:41;;;;;;;7.15;3.20;;;;;;;17.30;100.00;100786.94;5004505;28;20507;-71
2023/07/16 01:17:08;;;;;;;5.65;2.70;;;;;;;17.30;100.00;100785.16;4969002;28;20043;-71
2023/07/16 01:19:35;;;;;;;7.68;3.13;;;;;;;17.31;100.00;100783.31;4970536;28;20456;-71
2023/07/16 01:22:24;;;;;;;6.50;2.80;;;;;;;17.31;100.00;100788.66;5004725;28;20045;-71
2023/07/16 01:25:11;;;;;;;7.03;2.95;;;;;;;17.30;100.00;100782.47;4968849;28;20038;-71
2023/07/16 01:28:15;;;;;;;6.97;3.30;;;;;;;17.29;100.00;100783.44;4967913;28;20050;-71
2023/07/16 01:30:44;;;;;;;8.07;3.27;;;;;;;17.30;100.00;100786.94;4984243;28;20074;-71
2023/07/16 01:33:13;;;;;;;7.18;2.97;;;;;;;17.32;100.00;100785.91;4970589;28;20140;-71
2023/07/16 01:35:42;;;;;;;7.15;3.22;;;;;;;17.36;100.00;100789.25;4969550;28;20049;-71
2023/07/16 01:38:11;;;;;;;9.93;4.05;;;;;;;17.38;100.00;100793.53;4966633;28;20039;-71
2023/07/16 01:40:39;;;;;;;6.00;3.30;;;;;;;17.40;100.00;100782.78;4998634;28;20074;-71
2023/07/16 01:43:06;;;;;;;5.93;3.53;;;;;;;17.36;100.00;100782.09;4968841;28;20050;-71
2023/07/16 01:45:33;;;;;;;6.65;3.63;;;;;;;17.34;100.00;100784.03;4959968;28;20039;-71
2023/07/16 01:48:33;;;;;;;8.45;3.20;;;;;;;17.29;100.00;100779.91;4969307;28;20388;-71
2023/07/16 01:51:01;;;;;;;9.40;3.42;;;;;;;17.24;100.00;100774.88;4999578;28;20109;-70
2023/07/16 01:53:28;;;;;;;6.90;3.10;;;;;;;17.22;100.00;100776.75;4981719;28;20416;-70
2023/07/16 01:55:55;;;;;;;6.68;3.10;;;;;;;17.15;100.00;100778.94;4968118;28;20057;-71
2023/07/16 01:58:23;;;;;;;8.30;3.20;;;;;;;17.12;100.00;100772.94;4983156;28;20074;-71
2023/07/16 02:00:50;;;;;;;6.97;3.15;;;;;;;17.06;100.00;100774.97;4964917;28;20144;-71
2023/07/16 02:03:17;;;;;;;8.10;3.30;;;;;;;17.02;100.00;100772.59;4985499;28;20075;-71
2023/07/16 02:05:45;;;;;;;7.47;3.40;;;;;;;16.99;100.00;100776.31;4998120;28;20361;-72
2023/07/16 02:08:12;;;;;;;8.60;3.20;;;;;;;16.99;100.00;100773.63;4967549;28;20043;-71
2023/07/16 02:10:39;;;;;;;6.57;3.33;;;;;;;16.98;100.00;100781.72;4967851;28;20431;-71
2023/07/16 02:13:06;;;;;;;6.50;3.10;;;;;;;16.97;100.00;100774.69;4964456;28;20043;-71
2023/07/16 02:15:33;;;;;;;9.70;3.20;;;;;;;16.96;100.00;100788.94;4966092;28;20114;-72
2023/07/16 02:18:04;;;;;;;7.68;3.22;;;;;;;16.96;100.00;100780.94;4961385;28;20443;-70
2023/07/16 02:20:34;;;;;;;8.00;3.40;;;;;;;16.95;100.00;100780.06;4983229;28;20047;-71
2023/07/16 02:23:01;;;;;;;7.80;3.35;;;;;;;16.96;100.00;100789.78;4966223;28;20291;-70
2023/07/16 02:25:29;;;;;;;6.35;2.88;;;;;;;16.95;100.00;100796.06;4968418;28;20042;-71
2023/07/16 02:27:56;;;;;;;6.25;2.63;;;;;;;16.91;100.00;100791.84;4965743;28;20631;-71
2023/07/16 02:30:23;;;;;;;5.55;3.00;;;;;;;16.88;100.00;100798.19;4962997;28;20129;-71
2023/07/16 02:32:50;;;;;;;7.90;2.90;;;;;;;16.84;100.00;100801.13;4966706;28;20074;-71
2023/07/16 02:35:17;;;;;;;5.78;2.88;;;;;;;16.81;100.00;100799.47;4968688;28;20169;-70
2023/07/16 02:37:44;;;;;;;7.47;3.10;;;;;;;16.75;100.00;100787.38;4965464;28;20126;-70
2023/07/16 02:40:11;;;;;;;7.38;3.03;;;;;;;16.73;100.00;100791.97;4973956;28;20124;-70
2023/07/16 02:42:42;;;;;;;6.85;3.05;;;;;;;16.70;100.00;100791.25;4966495;28;20504;-70
2023/07/16 02:45:09;;;;;;;10.07;3.30;;;;;;;16.71;100.00;100804.50;4963660;28;20046;-70
2023/07/16 02:47:36;;;;;;;7.18;3.30;;;;;;;16.70;100.00;100788.59;4966416;28;20039;-70
2023/07/16 02:50:04;;;;;;;7.43;3.47;;;;;;;16.68;100.00;100796.66;4966915;28;20055;-70
2023/07/16 02:52:32;;;;;;;9.98;3.50;;;;;;;16.66;100.00;100798.56;4996640;28;20496;-70
2023/07/16 02:54:59;;;;;;;7.00;3.15;;;;;;;16.63;100.00;100801.41;4963406;28;20050;-70
2023/07/16 02:57:26;;;;;;;8.65;3.10;;;;;;;16.61;100.00;100808.63;4968557;28;20039;-70
2023/07/16 02:59:53;;;;;;;7.93;3.25;;;;;;;16.57;100.00;100810.59;4966595;28;20228;-69
2023/07/16 03:02:20;;;;;;;11.18;3.75;;;;;;;16.54;100.00;100816.06;4967789;28;20047;-69
2023/07/16 03:04:47;;;;;;;7.47;3.47;;;;;;;16.50;100.00;100808.34;4998583;28;20074;-70
2023/07/16 03:07:14;;;;;;;5.57;3.67;;;;;;;16.44;100.00;100813.06;4968544;28;20054;-71
2023/07/16 03:09:43;;;;;;;8.27;4.10;;;;;;;16.42;100.00;100814.97;4964549;28;20042;-71
2023/07/16 03:12:10;;;;;;;8.63;4.47;;;;;;;16.39;100.00;100817.78;4951798;28;20407;-71
2023/07/16 03:14:38;;;;;;;8.57;4.43;;;;;;;16.37;100.00;100827.66;4962649;28;20039;-71
2023/07/16 03:17:06;;;;;;;9.48;4.88;;;;;;;16.38;100.00;100825.88;4968309;28;20078;-71
2023/07/16 03:19:33;;;;;;;11.15;5.55;;;;;;;16.35;100.00;100826.88;4966371;28;20507;-71
2023/07/16 03:22:01;;;;;;;9.25;5.20;;;;;;;16.33;100.00;100830.56;4999710;28;20061;-72
2023/07/16 03:24:28;;;;;;;10.50;5.97;;;;;;;16.30;100.00;100829.78;4967090;28;20112;-71
2023/07/16 03:26:55;;;;;;;9.25;4.85;;;;;;;16.28;100.00;100830.81;4996594;28;20049;-71
2023/07/16 03:29:39;;;;;;;12.30;5.20;;;;;;;16.30;100.00;100837.75;4999013;28;20133;-71
2023/07/16 03:32:09;;;;;;;10.60;5.75;;;;;;;16.30;100.00;100843.06;4966878;28;20062;-72
2023/07/16 03:34:36;;;;;;;8.20;4.65;;;;;;;16.28;100.00;100838.78;4999528;28;20137;-70
2023/07/16 03:37:04;;;;;;;7.43;4.45;;;;;;;16.28;100.00;100836.97;4998128;28;20408;-70
2023/07/16 03:39:32;;;;;;;10.32;4.15;;;;;;;16.32;100.00;100840.34;4998455;28;20035;-70
2023/07/16 03:41:59;;;;;;;6.43;3.00;;;;;;;16.37;100.00;100837.44;4980761;28;20323;-70
2023/07/16 03:44:28;;;;;;;9.13;3.10;;;;;;;16.38;100.00;100839.16;4982358;28;20046;-70
2023/07/16 03:46:55;;;;;;;5.68;2.58;;;;;;;16.36;100.00;100839.22;4997504;28;20408;-70
2023/07/16 03:49:22;;;;;;;6.40;3.17;;;;;;;16.36;99.35;100847.22;4964188;28;20396;-70
2023/07/16 03:51:50;;;;;;;9.23;2.67;;;;;;;16.37;98.53;100850.75;4964609;28;20134;-70
2023/07/16 03:54:17;;;;;;;7.75;3.10;;;;;;;16.35;95.13;100852.63;4964998;28;20074;-70
2023/07/16 03:56:44;;;;;;;10.05;2.88;;;;;;;16.35;94.75;100860.59;4964958;28;20114;-71
2023/07/16 03:59:11;;;;;;;9.23;3.17;;;;;;;16.37;92.93;100850.75;4996366;28;20078;-72
2023/07/16 04:01:38;;;;;;;10.68;3.28;;;;;;;16.37;91.98;100864.91;4964345;28;20105;-72
2023/07/16 04:04:05;;;;;;;10.05;2.85;;;;;;;16.39;92.10;100862.13;4979943;28;20520;-72
2023/07/16 04:06:33;;;;;;;8.30;3.10;;;;;;;16.45;91.48;100872.47;4964395;28;20129;-72
2023/07/16 04:09:00;;;;;;;10.63;2.78;;;;;;;16.63;91.69;100883.03;4965526;28;20039;-72
2023/07/16 04:11:27;;;;;;;6.65;2.90;;;;;;;16.73;90.18;100876.25;4965596;28;20082;-72
2023/07/16 04:13:54;;;;;;;8.32;2.80;;;;;;;16.67;90.16;100882.78;4965597;28;20051;-71
2023/07/16 04:16:21;;;;;;;9.73;2.90;;;;;;;16.61;89.29;100889.28;4966015;28;20046;-71
2023/07/16 04:18:48;;;;;;;9.10;2.85;;;;;;;16.59;89.75;100885.84;4965053;28;20043;-72
2023/07/16 04:21:16;;;;;;;6.13;2.95;;;;;;;16.58;88.07;100897.44;4966656;28;20051;-72
2023/07/16 04:23:43;;;;;;;7.03;2.90;;;;;;;16.60;89.13;100905.34;4963458;28;20043;-72
2023/07/16 04:26:10;;;;;;;8.80;3.35;;;;;;;16.60;88.32;100906.19;4994052;28;20102;-72
2023/07/16 04:28:39;;;;;;;6.85;2.88;;;;;;;16.61;89.00;100901.75;4964789;28;20042;-72
2023/07/16 04:31:06;;;;;;;5.90;2.88;;;;;;;16.61;88.78;100899.09;4966371;28;20420;-72
2023/07/16 04:33:33;;;;;;;6.85;3.08;;;;;;;16.60;88.35;100898.22;4955697;28;20327;-72
2023/07/16 04:36:00;;;;;;;6.10;2.85;;;;;;;16.61;88.42;100905.25;4966591;28;20411;-71
2023/07/16 04:38:27;;;;;;;7.60;2.90;;;;;;;16.66;87.47;100907.66;4958347;28;20137;-71
2023/07/16 04:40:54;;;;;;;7.40;2.88;;;;;;;16.71;87.94;100918.06;4962144;28;20043;-71
2023/07/16 04:43:22;;;;;;;7.72;3.00;;;;;;;16.74;85.55;100916.09;4962882;28;20038;-71
2023/07/16 04:45:50;;;;;;;13.88;3.40;;;;;;;16.80;86.17;100917.56;4963535;28;20063;-71
2023/07/16 04:48:17;;;;;;;13.65;3.47;;;;;;;17.07;84.61;100923.19;4962500;28;20075;-71
2023/07/16 04:50:44;;;;;;;10.55;3.22;;;;;;;17.18;83.18;100922.59;4962554;28;20055;-71
2023/07/16 04:53:11;;;;;;;8.05;3.40;;;;;;;17.21;83.67;100934.88;4962749;28;20045;-71
2023/07/16 04:55:39;;;;;;;7.65;3.10;;;;;;;17.75;83.29;100933.56;4961810;28;20046;-71
2023/07/16 04:58:06;;;;;;;9.52;3.10;;;;;;;18.93;79.93;100940.63;4962592;28;20463;-71
2023/07/16 05:00:34;;;;;;;10.35;3.15;;;;;;;19.25;75.80;100935.03;4965309;28;20043;-71
2023/07/16 05:03:01;;;;;;;11.93;3.70;;;;;;;18.81;77.07;100931.56;4965465;28;20687;-71
2023/07/16 05:05:29;;;;;;;8.30;3.20;;;;;;;18.45;77.83;100941.78;4966328;28;20047;-71
2023/07/16 05:07:56;;;;;;;9.98;3.67;;;;;;;18.18;78.52;100939.00;4963688;28;20046;-71
2023/07/16 05:10:23;;;;;;;10.07;3.80;;;;;;;18.04;77.99;100939.00;4963132;28;20488;-72
2023/07/16 05:12:50;;;;;;;7.57;3.33;;;;;;;17.96;78.96;100944.75;4963653;28;20558;-72
2023/07/16 05:15:17;;;;;;;7.88;3.55;;;;;;;18.06;76.70;100942.44;4966841;28;20054;-71
2023/07/16 05:17:45;;;;;;;7.80;3.75;;;;;;;18.59;76.08;100948.09;4968182;28;20038;-72
2023/07/16 05:20:12;;;;;;;9.13;3.53;;;;;;;18.70;74.82;100944.75;4961802;28;20046;-72
2023/07/16 05:22:39;;;;;;;8.52;3.58;;;;;;;19.00;72.65;100952.66;4964615;28;20049;-70
2023/07/16 05:25:07;;;;;;;8.00;3.50;;;;;;;20.38;66.62;100948.88;4969394;28;20372;-71
2023/07/16 05:27:35;;;;;;;11.15;3.30;;;;;;;21.52;64.19;100953.19;4964434;28;20066;-71
2023/07/16 05:30:03;;;;;;;7.93;3.22;;;;;;;21.47;60.09;100952.69;4960465;28;20078;-72
2023/07/16 05:32:30;;;;;;;7.57;3.47;;;;;;;21.24;64.00;100962.44;4994094;28;20043;-72
2023/07/16 05:34:57;;;;;;;9.13;3.20;;;;;;;22.95;59.84;100948.44;4964564;28;20055;-72
2023/07/16 05:37:29;;;;;;;7.20;3.47;;;;;;;24.69;55.48;100958.19;4965804;28;20138;-73
2023/07/16 05:39:56;;;;;;;6.30;2.92;;;;;;;25.98;51.54;100955.53;4965659;28;20465;-74
2023/07/16 05:42:23;;;;;;;7.38;3.08;;;;;;;27.09;48.97;100957.53;4963633;28;20039;-74
2023/07/16 05:44:50;;;;;;;6.95;2.88;;;;;;;27.90;44.42;100963.06;4964329;28;20546;-74
2023/07/16 05:47:17;;;;;;;9.65;2.95;;;;;;;28.52;44.18;100971.13;4961317;28;20046;-73
2023/07/16 05:49:44;;;;;;;5.13;2.50;;;;;;;29.15;43.21;100967.31;4964355;28;20462;-74
2023/07/16 05:52:14;;;;;;;7.68;3.22;;;;;;;29.73;41.30;100960.97;4963758;28;20057;-74
2023/07/16 05:54:44;;;;;;;9.57;3.15;;;;;;;30.10;38.65;100966.06;4964118;28;20051;-72
2023/07/16 05:57:11;;;;;;;8.15;2.83;;;;;;;30.42;38.83;100976.03;4962454;28;20676;-73
2023/07/16 05:59:39;;;;;;;6.75;2.50;;;;;;;30.77;37.24;100976.59;4965339;28;20039;-73
2023/07/16 06:02:06;;;;;;;5.97;3.13;;;;;;;31.04;37.24;100985.31;4967331;28;20130;-72
2023/07/16 06:04:33;;;;;;;9.77;2.85;;;;;;;31.18;34.52;100972.88;4968456;28;20407;-72
2023/07/16 06:07:02;;;;;;;9.07;3.17;;;;;;;31.23;34.87;100978.59;4964548;28;20047;-71
2023/07/16 06:09:29;;;;;;;6.20;2.90;;;;;;;31.32;32.95;100982.13;4966115;28;20451;-74
2023/07/16 06:11:56;;;;;;;9.52;3.35;;;;;;;31.23;32.98;100983.22;4964691;28;20093;-74
2023/07/16 06:14:23;;;;;;;7.85;2.90;;;;;;;31.29;34.46;100977.03;4966358;28;20070;-73
2023/07/16 06:16:50;;;;;;;6.10;2.88;;;;;;;31.16;33.75;100985.81;4964352;28;20077;-73
2023/07/16 06:19:18;;;;;;;9.85;3.28;;;;;;;29.99;34.41;100983.56;4966405;28;20445;-75
2023/07/16 06:21:45;;;;;;;9.27;3.40;;;;;;;27.31;37.60;100987.88;4966513;28;20031;-75
2023/07/16 06:24:13;;;;;;;7.68;3.30;;;;;;;25.03;42.85;100984.00;4966659;28;20087;-74
2023/07/16 06:26:43;;;;;;;7.10;2.92;;;;;;;23.47;46.54;100992.75;4962285;28;20034;-73
2023/07/16 06:29:10;;;;;;;8.55;3.30;;;;;;;22.38;49.78;100992.41;4997768;28;20126;-73
2023/07/16 06:31:37;;;;;;;11.55;3.90;;;;;;;21.59;51.43;100996.56;4966832;28;20046;-72
2023/07/16 06:34:04;;;;;;;11.02;4.18;;;;;;;20.94;53.48;101006.56;4966464;28;20345;-74
2023/07/16 06:36:32;;;;;;;10.63;3.75;;;;;;;20.45;55.36;101009.06;4967328;28;20039;-75
2023/07/16 06:39:00;;;;;;;8.85;3.78;;;;;;;20.12;56.98;101013.09;4966419;28;20214;-76
2023/07/16 06:41:27;;;;;;;12.50;4.10;;;;;;;19.93;58.10;101015.28;4967775;28;20526;-73
2023/07/16 06:43:54;;;;;;;10.90;4.00;;;;;;;19.76;59.04;101006.56;4964337;28;20479;-72
2023/07/16 06:46:21;;;;;;;9.00;4.18;;;;;;;19.65;60.02;101017.94;4963977;28;20485;-72
2023/07/16 06:48:48;;;;;;;8.82;3.80;;;;;;;19.60;57.93;101013.84;4965413;28;20039;-72
2023/07/16 06:51:15;;;;;;;12.85;4.13;;;;;;;19.46;60.24;101020.09;4963235;28;20054;-73
2023/07/16 06:53:43;;;;;;;10.65;4.50;;;;;;;19.42;60.78;101024.81;4978065;28;20070;-73
2023/07/16 06:56:10;;;;;;;11.32;4.53;;;;;;;19.42;61.27;101032.81;4968436;28;20553;-73
2023/07/16 06:58:37;;;;;;;10.80;4.55;;;;;;;19.42;60.93;101026.63;4961980;28;20035;-72
2023/07/16 07:01:04;;;;;;;11.38;4.25;;;;;;;19.36;60.14;101030.56;4968120;28;20038;-73
2023/07/16 07:03:33;;;;;;;16.55;4.47;;;;;;;19.33;61.41;101028.91;4967685;28;20443;-72
2023/07/16 07:06:04;;;;;;;12.27;4.53;;;;;;;19.37;61.23;101025.09;4978099;28;20042;-72
2023/07/16 07:08:31;;;;;;;11.88;4.60;;;;;;;19.36;61.21;101026.06;4956734;28;20625;-72
2023/07/16 07:10:58;;;;;;;10.00;4.40;;;;;;;19.38;62.24;101036.66;4968267;28;20038;-72
2023/07/16 07:13:26;;;;;;;13.63;4.50;;;;;;;19.45;60.94;101027.28;4966441;28;20134;-72
2023/07/16 07:15:53;;;;;;;10.30;4.28;;;;;;;19.45;61.10;101032.63;4969687;28;20621;-72
2023/07/16 07:18:20;;;;;;;10.90;4.50;;;;;;;19.48;61.78;101026.22;4967625;28;20046;-72
2023/07/16 07:20:51;;;;;;;9.57;4.47;;;;;;;19.53;61.34;101034.81;4967877;28;20038;-72
2023/07/16 07:23:18;;;;;;;10.73;4.60;;;;;;;19.55;61.54;101041.78;4967610;28;20050;-73
2023/07/16 07:25:52;;;;;;;11.35;4.70;;;;;;;19.65;60.56;101046.50;4966618;28;20047;-73
2023/07/16 07:28:20;;;;;;;13.20;4.95;;;;;;;19.68;61.23;101046.31;4962764;28;20128;-72
2023/07/16 07:30:47;;;;;;;11.57;4.80;;;;;;;19.75;60.86;101049.44;4966224;28;20069;-72
2023/07/16 07:33:14;;;;;;;10.95;5.13;;;;;;;19.76;60.28;101051.16;4965813;28;20219;-73
2023/07/16 07:35:41;;;;;;;16.00;4.82;;;;;;;19.77;60.08;101047.50;4967548;28;20569;-71
2023/07/16 07:38:08;;;;;;;12.15;5.07;;;;;;;19.85;61.37;101043.41;4964223;28;20079;-72
2023/07/16 07:40:35;;;;;;;9.35;4.75;;;;;;;19.96;61.50;101037.34;4963128;28;20362;-72
2023/07/16 07:43:02;;;;;;;11.00;5.07;;;;;;;20.06;61.08;101040.28;4963627;28;20034;-71
2023/07/16 07:45:30;;;;;;;11.07;4.72;;;;;;;20.15;60.53;101036.97;4963412;28;20101;-72
2023/07/16 07:47:57;;;;;;;10.85;4.93;;;;;;;20.23;60.18;101035.59;4963521;28;20474;-72
2023/07/16 07:50:25;;;;;;;7.78;4.88;;;;;;;20.27;59.05;101042.44;4964618;28;20400;-72
2023/07/16 07:52:53;;;;;;;10.70;4.68;;;;;;;20.29;59.31;101040.53;4960550;28;20114;-72
2023/07/16 07:55:20;;;;;;;10.43;4.75;;;;;;;20.31;58.68;101043.94;4967882;28;20050;-71
2023/07/16 07:57:47;;;;;;;8.90;4.70;;;;;;;20.35;59.71;101044.59;4964521;28;20290;-72
2023/07/16 08:00:14;;;;;;;13.43;4.75;;;;;;;20.39;58.85;101046.97;4963327;28;20097;-72
2023/07/16 08:02:41;;;;;;;12.50;4.85;;;;;;;20.44;59.60;101041.31;4964970;28;20035;-71
2023/07/16 08:05:09;;;;;;;10.35;4.85;;;;;;;20.53;60.05;101048.69;4965741;28;20103;-70
2023/07/16 08:07:37;;;;;;;11.73;4.25;;;;;;;20.65;59.91;101055.00;4965684;28;20035;-70
2023/07/16 08:10:05;;;;;;;11.02;4.68;;;;;;;20.79;59.17;101056.75;4965109;28;20127;-71
2023/07/16 08:12:32;;;;;;;10.60;4.20;;;;;;;20.88;58.70;101068.66;4962245;28;20051;-69
2023/07/16 08:14:59;;;;;;;10.50;4.45;;;;;;;21.02;57.73;101056.94;4959664;28;20121;-69
2023/07/16 08:17:26;;;;;;;11.23;4.90;;;;;;;21.15;57.44;101063.16;4964814;28;20109;-69
2023/07/16 08:19:54;;;;;;;8.70;4.32;;;;;;;21.28;58.07;101059.56;4964154;28;20125;-69
2023/07/16 08:22:23;;;;;;;9.50;4.00;;;;;;;21.45;58.04;101074.44;4963775;28;20074;-69
2023/07/16 08:24:51;;;;;;;13.30;4.60;;;;;;;21.65;56.07;101060.47;4963986;28;20153;-70
2023/07/16 08:27:19;;;;;;;10.13;4.47;;;;;;;21.84;56.88;101061.78;4964219;28;20267;-69
2023/07/16 08:29:46;;;;;;;9.45;4.22;;;;;;;22.00;55.50;101056.97;4961692;28;20543;-69
2023/07/16 08:32:13;;;;;;;11.70;4.35;;;;;;;22.00;56.00;101066.84;4965762;28;20042;-69
2023/07/16 08:34:41;;;;;;;11.48;4.53;;;;;;;22.05;54.75;101066.50;4966074;28;20452;-69
2023/07/16 08:37:08;;;;;;;8.00;4.47;;;;;;;21.96;55.65;101071.59;4965374;28;20047;-69
2023/07/16 08:39:35;;;;;;;8.93;4.15;;;;;;;22.01;54.93;101074.81;4966072;28;20484;-69
2023/07/16 08:42:04;;;;;;;9.00;4.25;;;;;;;22.07;55.05;101070.81;4962559;28;20093;-72
2023/07/16 08:44:31;;;;;;;7.80;4.40;;;;;;;22.17;54.47;101079.00;4965543;28;20803;-69
2023/07/16 08:47:03;;;;;;;12.38;4.07;;;;;;;22.13;55.20;101074.84;4964125;28;20039;-69
2023/07/16 08:49:32;;;;;;;11.75;3.70;;;;;;;22.15;54.56;101072.88;4964392;28;20046;-70
2023/07/16 08:52:02;;;;;;;7.53;4.05;;;;;;;22.07;53.76;101072.59;4969084;28;20065;-69
2023/07/16 08:54:29;;;;;;;8.02;3.95;;;;;;;21.97;54.69;101075.16;4957968;28;20093;-69
2023/07/16 08:56:59;;;;;;;10.43;4.30;;;;;;;22.02;54.86;101081.88;4964460;28;20800;-70
2023/07/16 08:59:27;;;;;;;9.65;3.63;;;;;;;22.07;53.62;101080.66;4963650;28;20377;-70
2023/07/16 09:02:02;;;;;;;8.70;3.88;;;;;;;22.07;54.15;101076.16;4969290;28;20125;-70
2023/07/16 09:04:29;;;;;;;7.13;3.55;;;;;;;22.23;53.95;101081.19;4964839;28;20097;-69
2023/07/16 09:06:59;;;;;;;8.73;3.90;;;;;;;22.25;53.30;101087.31;4965982;28;21202;-70
2023/07/16 09:09:26;;;;;;;12.57;4.40;;;;;;;22.43;53.18;101084.25;4963969;28;20039;-71
2023/07/16 09:11:54;;;;;;;9.30;3.70;;;;;;;22.66;53.64;101085.16;4963797;28;20644;-71
2023/07/16 09:14:24;;;;;;;7.80;3.38;;;;;;;22.64;52.69;101085.25;4965042;28;20042;-69
2023/07/16 09:16:53;;;;;;;18.42;4.20;;;;;;;22.68;53.28;101085.91;4960293;28;20909;-68
2023/07/16 09:19:21;;;;;;;7.90;3.60;;;;;;;22.80;52.92;101089.44;4961959;28;20043;-67
2023/07/16 09:21:52;;;;;;;7.40;3.17;;;;;;;22.93;50.51;101083.94;4963162;28;20334;-71
2023/07/16 09:24:20;;;;;;;7.95;3.30;;;;;;;22.99;50.92;101091.56;4963304;28;20057;-69
2023/07/16 09:26:56;;;;;;;8.43;3.40;;;;;;;22.96;51.64;101094.47;4968344;28;20046;-70
2023/07/16 09:29:26;;;;;;;8.30;3.60;;;;;;;23.08;49.77;101085.44;4963916;28;20043;-69
2023/07/16 09:32:00;;;;;;;8.05;3.33;;;;;;;23.34;50.27;101095.13;4963750;28;20085;-69
2023/07/16 09:34:33;;;;;;;8.63;3.65;;;;;;;23.47;51.09;101094.97;4966022;28;20472;-69
2023/07/16 09:37:01;;;;;;;6.97;3.38;;;;;;;23.52;50.64;101096.31;4969333;28;20453;-69
2023/07/16 09:39:31;;;;;;;7.28;3.25;;;;;;;23.68;50.14;101092.34;4968985;28;20047;-67
2023/07/16 09:42:02;;;;;;;4.97;3.03;;;;;;;23.72;49.06;101097.34;4968325;28;20161;-69
2023/07/16 09:44:35;;;;;;;9.63;3.03;;;;;;;23.70;48.34;101103.84;4968614;28;20090;-70
2023/07/16 09:47:13;;;;;;;6.43;3.00;;;;;;;23.61;48.45;101104.59;4965829;28;20308;-69
2023/07/16 09:49:45;;;;;;;6.65;2.95;;;;;;;23.57;48.38;101098.63;4965416;28;20081;-69
2023/07/16 09:52:20;;;;;;;11.27;3.40;;;;;;;23.68;48.08;101104.00;4969618;28;20058;-69
2023/07/16 09:54:54;;;;;;;8.18;2.63;;;;;;;23.81;47.65;101102.97;4965943;28;20108;-70
2023/07/16 09:57:30;;;;;;;7.05;2.63;;;;;;;23.81;48.47;101106.50;4972391;28;20072;-69
2023/07/16 10:00:12;;;;;;;9.25;2.97;;;;;;;23.94;48.60;101116.28;4964621;28;20039;-70
2023/07/16 10:02:44;;;;;;;7.20;3.38;;;;;;;24.03;47.72;101120.91;4961470;28;20059;-69
2023/07/16 10:05:39;;;;;;;5.60;2.33;;;;;;;23.92;46.63;101110.16;4959647;28;20168;-70
2023/07/16 10:08:17;;;;;;;5.22;2.80;;;;;;;23.89;46.23;101114.81;4964063;28;20496;-70
2023/07/16 10:10:53;;;;;;;7.07;3.10;;;;;;;24.05;47.06;101108.19;4964561;28;20042;-70
2023/07/16 10:13:26;;;;;;;6.10;2.80;;;;;;;24.10;46.62;101118.59;4962739;28;20058;-69
2023/07/16 10:15:59;;;;;;;6.97;3.07;;;;;;;24.00;46.75;101118.47;4949191;28;20133;-70
2023/07/16 10:18:34;;;;;;;9.50;3.10;;;;;;;23.96;45.75;101120.56;4963530;28;20454;-69
2023/07/16 10:21:08;;;;;;;8.40;3.50;;;;;;;23.94;47.05;101125.19;4966872;28;20141;-69
2023/07/16 10:23:42;;;;;;;12.55;2.60;;;;;;;23.89;46.27;101130.97;4965886;28;20511;-71
2023/07/16 10:26:15;;;;;;;6.07;3.05;;;;;;;23.70;46.65;101133.44;4962143;28;20089;-70
2023/07/16 10:28:52;;;;;;;8.07;2.90;;;;;;;23.58;47.23;101135.31;4965653;28;20580;-71
2023/07/16 10:31:27;;;;;;;7.07;2.38;;;;;;;23.57;48.25;101133.59;4965800;28;20058;-70
2023/07/16 10:34:12;;;;;;;4.57;2.53;;;;;;;23.59;48.00;101139.72;4967700;28;20042;-70
2023/07/16 10:36:41;;;;;;;6.50;2.55;;;;;;;23.47;47.88;101152.31;4966604;28;20062;-70
2023/07/16 10:39:17;;;;;;;6.40;2.80;;;;;;;23.30;48.13;101153.66;4965583;28;20051;-72
2023/07/16 10:41:55;;;;;;;8.27;3.08;;;;;;;23.25;47.92;101150.50;4966503;28;20738;-69
2023/07/16 10:44:22;;;;;;;7.70;2.95;;;;;;;23.16;48.11;101157.41;4963567;28;20050;-70
2023/07/16 10:46:54;;;;;;;5.30;2.70;;;;;;;23.04;48.29;101166.47;4963992;28;20094;-70
2023/07/16 10:49:33;;;;;;;8.10;2.72;;;;;;;23.04;49.49;101153.84;4962368;28;20051;-70
2023/07/16 10:52:04;;;;;;;4.63;2.40;;;;;;;23.24;49.62;101164.91;4968649;28;20705;-70
2023/07/16 10:54:43;;;;;;;5.82;2.47;;;;;;;23.71;49.20;101157.53;4967429;28;20044;-70
2023/07/16 10:57:16;;;;;;;6.80;2.53;;;;;;;24.02;46.87;101156.91;4967064;28;20105;-70
2023/07/16 10:59:45;;;;;;;8.63;2.58;;;;;;;24.21;45.55;101158.94;4968272;28;20053;-70
2023/07/16 11:02:14;;;;;;;4.78;2.53;;;;;;;24.42;46.46;101160.81;4967608;28;20039;-69
2023/07/16 11:04:44;;;;;;;8.00;2.65;;;;;;;24.49;46.79;101157.44;4966496;28;20046;-69
2023/07/16 11:07:13;;;;;;;4.28;2.60;;;;;;;24.63;46.46;101163.50;4967628;28;20149;-69
2023/07/16 11:09:49;;;;;;;4.57;2.53;;;;;;;24.74;46.20;101162.63;4966915;28;20057;-69
2023/07/16 11:12:20;;;;;;;6.35;2.58;;;;;;;24.73;44.29;101156.38;4967886;28;20393;-69
2023/07/16 11:14:51;;;;;;;5.80;2.30;;;;;;;24.69;44.34;101164.88;4968133;28;20424;-70
2023/07/16 11:17:22;;;;;;;8.32;2.67;;;;;;;24.59;44.54;101165.63;4965995;28;20356;-70
2023/07/16 11:19:52;;;;;;;10.23;2.45;;;;;;;24.85;44.03;101161.72;4966410;28;20066;-69
2023/07/16 11:22:25;;;;;;;6.75;2.90;;;;;;;25.08;44.13;101165.94;4967679;28;20035;-70
2023/07/16 11:24:54;;;;;;;5.07;2.53;;;;;;;25.30;44.37;101169.47;4955374;28;20073;-69
2023/07/16 11:27:26;;;;;;;9.45;2.80;;;;;;;25.36;42.99;101170.75;4965524;28;20623;-70
2023/07/16 11:29:59;;;;;;;6.88;2.50;;;;;;;25.21;42.71;101173.84;4965412;28;20502;-70